sensor_id;sensor_type;location;lat;lon;timestamp;P1;durP1;ratioP1;P2;durP2;ratioP2
20743;SDS011;56303;52.160;-0.428;2022-11-21T00:00:49;8.17;;;3.20;;
20743;SDS011;56303;52.160;-0.428;2022-11-21T00:03:17;8.60;;;3.20;;
20743;SDS011;56303;52.160;-0.428;2022-11-21T00:05:44;9.00;;;3.20;;
20743;SDS011;56303;52.160;-0.428;2022-11-21T00:08:14;7.73;;;3.60;;
20743;SDS011;56303;52.160;-0.428;2022-11-21T00:10:45;9.13;;;2.87;;
20743;SDS011;56303;52.160;-0.428;2022-11-21T00:13:19;6.40;;;3.50;;
20743;SDS011;56303;52.160;-0.428;2022-11-21T00:15:46;7.03;;;3.00;;
20743;SDS011;56303;52.160;-0.428;2022-11-21T00:18:13;7.40;;;3.60;;
20743;SDS011;56303;52.160;-0.428;2022-11-21T00:20:40;16.20;;;4.20;;
20743;SDS011;56303;52.160;-0.428;2022-11-21T00:23:07;7.63;;;3.50;;
20743;SDS011;56303;52.160;-0.428;2022-11-21T00:25:35;5.67;;;3.17;;
20743;SDS011;56303;52.160;-0.428;2022-11-21T00:28:03;6.83;;;3.50;;
20743;SDS011;56303;52.160;-0.428;2022-11-21T00:30:30;8.47;;;3.30;;
20743;SDS011;56303;52.160;-0.428;2022-11-21T00:32:57;5.20;;;2.70;;
20743;SDS011;56303;52.160;-0.428;2022-11-21T00:35:24;9.90;;;3.63;;
20743;SDS011;56303;52.160;-0.428;2022-11-21T00:37:51;6.87;;;3.60;;
20743;SDS011;56303;52.160;-0.428;2022-11-21T00:40:18;6.93;;;3.40;;
20743;SDS011;56303;52.160;-0.428;2022-11-21T00:42:45;7.07;;;3.00;;
20743;SDS011;56303;52.160;-0.428;2022-11-21T00:45:12;7.73;;;3.23;;
20743;SDS011;56303;52.160;-0.428;2022-11-21T00:47:39;6.53;;;3.40;;
20743;SDS011;56303;52.160;-0.428;2022-11-21T00:50:05;9.23;;;3.20;;
20743;SDS011;56303;52.160;-0.428;2022-11-21T00:52:32;7.43;;;3.20;;
20743;SDS011;56303;52.160;-0.428;2022-11-21T00:54:59;9.67;;;4.13;;
20743;SDS011;56303;52.160;-0.428;2022-11-21T00:57:26;10.13;;;3.73;;
20743;SDS011;56303;52.160;-0.428;2022-11-21T00:59:53;10.73;;;3.30;;
20743;SDS011;56303;52.160;-0.428;2022-11-21T01:02:19;7.80;;;3.53;;
20743;SDS011;56303;52.160;-0.428;2022-11-21T01:04:46;10.60;;;4.10;;
20743;SDS011;56303;52.160;-0.428;2022-11-21T01:07:13;5.83;;;3.10;;
20743;SDS011;56303;52.160;-0.428;2022-11-21T01:09:40;10.70;;;3.67;;
20743;SDS011;56303;52.160;-0.428;2022-11-21T01:12:07;5.07;;;3.27;;
20743;SDS011;56303;52.160;-0.428;2022-11-21T01:14:34;7.60;;;3.50;;
20743;SDS011;56303;52.160;-0.428;2022-11-21T01:17:00;9.37;;;3.97;;
20743;SDS011;56303;52.160;-0.428;2022-11-21T01:19:27;5.90;;;3.40;;
20743;SDS011;56303;52.160;-0.428;2022-11-21T01:21:54;8.03;;;3.47;;
20743;SDS011;56303;52.160;-0.428;2022-11-21T01:24:21;9.47;;;3.13;;
20743;SDS011;56303;52.160;-0.428;2022-11-21T01:26:47;6.33;;;2.50;;
20743;SDS011;56303;52.160;-0.428;2022-11-21T01:29:16;8.00;;;3.10;;
20743;SDS011;56303;52.160;-0.428;2022-11-21T01:31:42;10.47;;;3.57;;
20743;SDS011;56303;52.160;-0.428;2022-11-21T01:34:09;8.50;;;3.00;;
20743;SDS011;56303;52.160;-0.428;2022-11-21T01:36:36;5.73;;;2.87;;
20743;SDS011;56303;52.160;-0.428;2022-11-21T01:39:04;6.73;;;2.97;;
20743;SDS011;56303;52.160;-0.428;2022-11-21T01:41:33;12.17;;;3.90;;
20743;SDS011;56303;52.160;-0.428;2022-11-21T01:44:04;8.57;;;3.40;;
20743;SDS011;56303;52.160;-0.428;2022-11-21T01:46:40;10.00;;;3.10;;
20743;SDS011;56303;52.160;-0.428;2022-11-21T01:49:08;7.93;;;3.23;;
20743;SDS011;56303;52.160;-0.428;2022-11-21T01:54:13;5.77;;;2.83;;
20743;SDS011;56303;52.160;-0.428;2022-11-21T01:57:12;6.23;;;3.00;;
20743;SDS011;56303;52.160;-0.428;2022-11-21T02:02:23;6.73;;;3.03;;
20743;SDS011;56303;52.160;-0.428;2022-11-21T02:04:53;10.77;;;3.00;;
20743;SDS011;56303;52.160;-0.428;2022-11-21T02:07:22;8.53;;;2.80;;
20743;SDS011;56303;52.160;-0.428;2022-11-21T02:09:56;7.37;;;3.03;;
20743;SDS011;56303;52.160;-0.428;2022-11-21T02:12:28;4.40;;;2.40;;
20743;SDS011;56303;52.160;-0.428;2022-11-21T02:15:03;9.10;;;2.97;;
20743;SDS011;56303;52.160;-0.428;2022-11-21T02:17:30;9.60;;;3.10;;
20743;SDS011;56303;52.160;-0.428;2022-11-21T02:20:09;11.73;;;3.37;;
20743;SDS011;56303;52.160;-0.428;2022-11-21T02:25:18;12.70;;;3.47;;
20743;SDS011;56303;52.160;-0.428;2022-11-21T02:27:48;10.77;;;3.40;;
20743;SDS011;56303;52.160;-0.428;2022-11-21T02:30:17;8.17;;;2.80;;
20743;SDS011;56303;52.160;-0.428;2022-11-21T02:32:44;6.93;;;2.60;;
20743;SDS011;56303;52.160;-0.428;2022-11-21T02:35:15;7.07;;;3.10;;
20743;SDS011;56303;52.160;-0.428;2022-11-21T02:37:44;8.57;;;3.37;;
20743;SDS011;56303;52.160;-0.428;2022-11-21T02:40:31;7.80;;;2.97;;
20743;SDS011;56303;52.160;-0.428;2022-11-21T02:45:43;10.20;;;3.60;;
20743;SDS011;56303;52.160;-0.428;2022-11-21T02:48:11;9.97;;;3.63;;
20743;SDS011;56303;52.160;-0.428;2022-11-21T02:50:39;10.03;;;3.20;;
20743;SDS011;56303;52.160;-0.428;2022-11-21T02:53:09;7.97;;;3.70;;
20743;SDS011;56303;52.160;-0.428;2022-11-21T02:55:38;8.50;;;3.10;;
20743;SDS011;56303;52.160;-0.428;2022-11-21T02:58:05;8.67;;;3.60;;
20743;SDS011;56303;52.160;-0.428;2022-11-21T03:00:32;9.17;;;3.57;;
20743;SDS011;56303;52.160;-0.428;2022-11-21T03:03:01;9.57;;;3.40;;
20743;SDS011;56303;52.160;-0.428;2022-11-21T03:05:28;10.07;;;3.80;;
20743;SDS011;56303;52.160;-0.428;2022-11-21T03:07:55;10.37;;;3.40;;
20743;SDS011;56303;52.160;-0.428;2022-11-21T03:10:22;6.03;;;3.03;;
20743;SDS011;56303;52.160;-0.428;2022-11-21T03:12:48;8.13;;;3.37;;
20743;SDS011;56303;52.160;-0.428;2022-11-21T03:15:15;11.57;;;3.17;;
20743;SDS011;56303;52.160;-0.428;2022-11-21T03:17:42;7.23;;;3.27;;
20743;SDS011;56303;52.160;-0.428;2022-11-21T03:20:13;6.60;;;3.30;;
20743;SDS011;56303;52.160;-0.428;2022-11-21T03:22:40;8.90;;;3.53;;
20743;SDS011;56303;52.160;-0.428;2022-11-21T03:25:07;9.43;;;3.30;;
20743;SDS011;56303;52.160;-0.428;2022-11-21T03:27:34;8.67;;;3.67;;
20743;SDS011;56303;52.160;-0.428;2022-11-21T03:30:01;8.30;;;3.40;;
20743;SDS011;56303;52.160;-0.428;2022-11-21T03:32:27;11.80;;;3.33;;
20743;SDS011;56303;52.160;-0.428;2022-11-21T03:34:54;7.07;;;3.07;;
20743;SDS011;56303;52.160;-0.428;2022-11-21T03:37:21;8.00;;;3.13;;
20743;SDS011;56303;52.160;-0.428;2022-11-21T03:39:48;7.17;;;2.97;;
20743;SDS011;56303;52.160;-0.428;2022-11-21T03:42:14;11.10;;;4.07;;
20743;SDS011;56303;52.160;-0.428;2022-11-21T03:44:41;9.50;;;3.63;;
20743;SDS011;56303;52.160;-0.428;2022-11-21T03:47:08;11.07;;;3.70;;
20743;SDS011;56303;52.160;-0.428;2022-11-21T03:49:35;7.67;;;3.17;;
20743;SDS011;56303;52.160;-0.428;2022-11-21T03:52:01;9.47;;;3.67;;
20743;SDS011;56303;52.160;-0.428;2022-11-21T03:54:28;11.27;;;3.47;;
20743;SDS011;56303;52.160;-0.428;2022-11-21T03:56:55;8.37;;;3.27;;
20743;SDS011;56303;52.160;-0.428;2022-11-21T03:59:22;6.63;;;3.23;;
20743;SDS011;56303;52.160;-0.428;2022-11-21T04:01:49;7.90;;;3.60;;
20743;SDS011;56303;52.160;-0.428;2022-11-21T04:04:16;8.60;;;3.30;;
20743;SDS011;56303;52.160;-0.428;2022-11-21T04:06:43;11.30;;;4.43;;
20743;SDS011;56303;52.160;-0.428;2022-11-21T04:09:10;10.23;;;3.57;;
20743;SDS011;56303;52.160;-0.428;2022-11-21T04:11:37;11.60;;;3.73;;
20743;SDS011;56303;52.160;-0.428;2022-11-21T04:14:04;8.93;;;3.43;;
20743;SDS011;56303;52.160;-0.428;2022-11-21T04:16:30;6.77;;;3.33;;
20743;SDS011;56303;52.160;-0.428;2022-11-21T04:18:57;9.77;;;3.87;;
20743;SDS011;56303;52.160;-0.428;2022-11-21T04:21:24;6.17;;;3.40;;
20743;SDS011;56303;52.160;-0.428;2022-11-21T04:23:51;9.67;;;3.27;;
20743;SDS011;56303;52.160;-0.428;2022-11-21T04:26:17;7.10;;;3.03;;
20743;SDS011;56303;52.160;-0.428;2022-11-21T04:28:44;7.73;;;2.83;;
20743;SDS011;56303;52.160;-0.428;2022-11-21T04:31:11;9.20;;;3.40;;
20743;SDS011;56303;52.160;-0.428;2022-11-21T04:33:38;9.03;;;3.43;;
20743;SDS011;56303;52.160;-0.428;2022-11-21T04:36:05;10.37;;;3.70;;
20743;SDS011;56303;52.160;-0.428;2022-11-21T04:38:33;8.00;;;3.60;;
20743;SDS011;56303;52.160;-0.428;2022-11-21T04:41:00;7.30;;;3.20;;
20743;SDS011;56303;52.160;-0.428;2022-11-21T04:43:27;7.03;;;3.33;;
20743;SDS011;56303;52.160;-0.428;2022-11-21T04:45:54;7.97;;;3.10;;
20743;SDS011;56303;52.160;-0.428;2022-11-21T04:48:20;7.13;;;2.60;;
20743;SDS011;56303;52.160;-0.428;2022-11-21T04:50:47;4.93;;;2.60;;
20743;SDS011;56303;52.160;-0.428;2022-11-21T04:53:14;5.00;;;2.47;;
20743;SDS011;56303;52.160;-0.428;2022-11-21T04:55:41;9.53;;;3.00;;
20743;SDS011;56303;52.160;-0.428;2022-11-21T04:58:07;8.20;;;3.20;;
20743;SDS011;56303;52.160;-0.428;2022-11-21T05:00:34;6.47;;;3.13;;
20743;SDS011;56303;52.160;-0.428;2022-11-21T05:03:02;9.90;;;3.93;;
20743;SDS011;56303;52.160;-0.428;2022-11-21T05:05:30;9.17;;;2.90;;
20743;SDS011;56303;52.160;-0.428;2022-11-21T05:07:58;9.53;;;3.33;;
20743;SDS011;56303;52.160;-0.428;2022-11-21T05:10:25;6.90;;;3.43;;
20743;SDS011;56303;52.160;-0.428;2022-11-21T05:12:56;10.27;;;3.20;;
20743;SDS011;56303;52.160;-0.428;2022-11-21T05:15:42;9.33;;;3.23;;
20743;SDS011;56303;52.160;-0.428;2022-11-21T05:18:09;10.53;;;3.50;;
20743;SDS011;56303;52.160;-0.428;2022-11-21T05:20:35;9.53;;;3.13;;
20743;SDS011;56303;52.160;-0.428;2022-11-21T05:23:02;9.07;;;2.97;;
20743;SDS011;56303;52.160;-0.428;2022-11-21T05:25:29;13.00;;;3.70;;
20743;SDS011;56303;52.160;-0.428;2022-11-21T05:27:56;9.27;;;3.13;;
20743;SDS011;56303;52.160;-0.428;2022-11-21T05:30:23;14.00;;;4.10;;
20743;SDS011;56303;52.160;-0.428;2022-11-21T05:32:49;14.10;;;4.40;;
20743;SDS011;56303;52.160;-0.428;2022-11-21T05:35:16;11.13;;;3.80;;
20743;SDS011;56303;52.160;-0.428;2022-11-21T05:37:43;9.63;;;4.07;;
20743;SDS011;56303;52.160;-0.428;2022-11-21T05:40:10;10.67;;;4.30;;
20743;SDS011;56303;52.160;-0.428;2022-11-21T05:42:40;14.00;;;4.20;;
20743;SDS011;56303;52.160;-0.428;2022-11-21T05:45:26;9.53;;;3.93;;
20743;SDS011;56303;52.160;-0.428;2022-11-21T05:47:53;12.37;;;3.77;;
20743;SDS011;56303;52.160;-0.428;2022-11-21T05:50:20;11.33;;;4.03;;
20743;SDS011;56303;52.160;-0.428;2022-11-21T05:52:46;13.70;;;4.17;;
20743;SDS011;56303;52.160;-0.428;2022-11-21T05:55:13;11.83;;;4.90;;
20743;SDS011;56303;52.160;-0.428;2022-11-21T05:57:40;17.03;;;4.90;;
20743;SDS011;56303;52.160;-0.428;2022-11-21T06:00:07;10.37;;;5.13;;
20743;SDS011;56303;52.160;-0.428;2022-11-21T06:02:34;12.13;;;4.73;;
20743;SDS011;56303;52.160;-0.428;2022-11-21T06:05:19;14.80;;;6.10;;
20743;SDS011;56303;52.160;-0.428;2022-11-21T06:07:46;10.40;;;5.80;;
20743;SDS011;56303;52.160;-0.428;2022-11-21T06:10:13;12.10;;;6.57;;
20743;SDS011;56303;52.160;-0.428;2022-11-21T06:12:40;14.17;;;6.07;;
20743;SDS011;56303;52.160;-0.428;2022-11-21T06:15:07;11.60;;;5.80;;
20743;SDS011;56303;52.160;-0.428;2022-11-21T06:17:34;17.30;;;6.47;;
20743;SDS011;56303;52.160;-0.428;2022-11-21T06:20:00;16.53;;;5.80;;
20743;SDS011;56303;52.160;-0.428;2022-11-21T06:22:27;10.70;;;5.53;;
20743;SDS011;56303;52.160;-0.428;2022-11-21T06:24:54;12.40;;;4.87;;
20743;SDS011;56303;52.160;-0.428;2022-11-21T06:27:20;11.90;;;6.60;;
20743;SDS011;56303;52.160;-0.428;2022-11-21T06:29:47;15.90;;;5.57;;
20743;SDS011;56303;52.160;-0.428;2022-11-21T06:32:14;10.00;;;5.17;;
20743;SDS011;56303;52.160;-0.428;2022-11-21T06:34:41;12.13;;;5.80;;
20743;SDS011;56303;52.160;-0.428;2022-11-21T06:37:08;11.83;;;5.43;;
20743;SDS011;56303;52.160;-0.428;2022-11-21T06:39:34;11.27;;;5.57;;
20743;SDS011;56303;52.160;-0.428;2022-11-21T06:42:01;12.37;;;5.67;;
20743;SDS011;56303;52.160;-0.428;2022-11-21T06:44:28;17.40;;;6.10;;
20743;SDS011;56303;52.160;-0.428;2022-11-21T06:46:55;14.90;;;5.40;;
20743;SDS011;56303;52.160;-0.428;2022-11-21T06:49:22;15.43;;;6.17;;
20743;SDS011;56303;52.160;-0.428;2022-11-21T06:51:48;14.27;;;5.20;;
20743;SDS011;56303;52.160;-0.428;2022-11-21T06:54:15;15.27;;;6.23;;
20743;SDS011;56303;52.160;-0.428;2022-11-21T06:56:42;15.57;;;5.40;;
20743;SDS011;56303;52.160;-0.428;2022-11-21T06:59:09;15.40;;;6.63;;
20743;SDS011;56303;52.160;-0.428;2022-11-21T07:01:36;12.50;;;6.13;;
20743;SDS011;56303;52.160;-0.428;2022-11-21T07:04:03;17.57;;;6.27;;
20743;SDS011;56303;52.160;-0.428;2022-11-21T07:06:30;14.27;;;6.00;;
20743;SDS011;56303;52.160;-0.428;2022-11-21T07:08:57;10.50;;;5.40;;
20743;SDS011;56303;52.160;-0.428;2022-11-21T07:11:43;13.43;;;5.87;;
20743;SDS011;56303;52.160;-0.428;2022-11-21T07:14:10;11.87;;;4.93;;
20743;SDS011;56303;52.160;-0.428;2022-11-21T07:16:37;12.73;;;6.20;;
20743;SDS011;56303;52.160;-0.428;2022-11-21T07:19:05;14.70;;;5.97;;
20743;SDS011;56303;52.160;-0.428;2022-11-21T07:21:32;11.73;;;6.23;;
20743;SDS011;56303;52.160;-0.428;2022-11-21T07:23:59;11.87;;;5.87;;
20743;SDS011;56303;52.160;-0.428;2022-11-21T07:26:25;11.10;;;5.40;;
20743;SDS011;56303;52.160;-0.428;2022-11-21T07:28:52;11.00;;;5.50;;
20743;SDS011;56303;52.160;-0.428;2022-11-21T07:31:19;19.73;;;5.53;;
20743;SDS011;56303;52.160;-0.428;2022-11-21T07:33:46;10.73;;;5.20;;
20743;SDS011;56303;52.160;-0.428;2022-11-21T07:36:13;11.60;;;5.43;;
20743;SDS011;56303;52.160;-0.428;2022-11-21T07:38:40;13.27;;;5.30;;
20743;SDS011;56303;52.160;-0.428;2022-11-21T07:41:07;14.43;;;5.27;;
20743;SDS011;56303;52.160;-0.428;2022-11-21T07:43:35;16.27;;;5.90;;
20743;SDS011;56303;52.160;-0.428;2022-11-21T07:46:02;15.60;;;6.17;;
20743;SDS011;56303;52.160;-0.428;2022-11-21T07:48:29;13.00;;;6.00;;
20743;SDS011;56303;52.160;-0.428;2022-11-21T07:50:55;16.67;;;5.93;;
20743;SDS011;56303;52.160;-0.428;2022-11-21T07:53:22;14.80;;;5.70;;
20743;SDS011;56303;52.160;-0.428;2022-11-21T07:55:49;10.00;;;4.40;;
20743;SDS011;56303;52.160;-0.428;2022-11-21T07:58:16;10.00;;;5.07;;
20743;SDS011;56303;52.160;-0.428;2022-11-21T08:00:43;14.90;;;6.10;;
20743;SDS011;56303;52.160;-0.428;2022-11-21T08:03:10;18.97;;;5.63;;
20743;SDS011;56303;52.160;-0.428;2022-11-21T08:05:39;17.90;;;7.17;;
20743;SDS011;56303;52.160;-0.428;2022-11-21T08:08:07;15.47;;;6.10;;
20743;SDS011;56303;52.160;-0.428;2022-11-21T08:10:42;13.80;;;5.70;;
20743;SDS011;56303;52.160;-0.428;2022-11-21T08:13:10;13.30;;;5.63;;
20743;SDS011;56303;52.160;-0.428;2022-11-21T08:15:38;13.77;;;5.60;;
20743;SDS011;56303;52.160;-0.428;2022-11-21T08:18:15;16.27;;;5.90;;
20743;SDS011;56303;52.160;-0.428;2022-11-21T08:20:46;17.07;;;6.60;;
20743;SDS011;56303;52.160;-0.428;2022-11-21T08:23:12;13.03;;;6.17;;
20743;SDS011;56303;52.160;-0.428;2022-11-21T08:25:40;15.73;;;6.57;;
20743;SDS011;56303;52.160;-0.428;2022-11-21T08:28:09;13.63;;;6.43;;
20743;SDS011;56303;52.160;-0.428;2022-11-21T08:30:36;16.80;;;6.93;;
20743;SDS011;56303;52.160;-0.428;2022-11-21T08:33:05;13.53;;;6.77;;
20743;SDS011;56303;52.160;-0.428;2022-11-21T08:35:34;16.37;;;7.77;;
20743;SDS011;56303;52.160;-0.428;2022-11-21T08:38:03;16.77;;;7.60;;
20743;SDS011;56303;52.160;-0.428;2022-11-21T08:40:31;21.07;;;8.03;;
20743;SDS011;56303;52.160;-0.428;2022-11-21T08:42:58;17.07;;;6.77;;
20743;SDS011;56303;52.160;-0.428;2022-11-21T08:45:30;25.83;;;7.83;;
20743;SDS011;56303;52.160;-0.428;2022-11-21T08:47:57;16.03;;;7.50;;
20743;SDS011;56303;52.160;-0.428;2022-11-21T08:50:25;15.87;;;6.27;;
20743;SDS011;56303;52.160;-0.428;2022-11-21T08:52:59;16.50;;;6.30;;
20743;SDS011;56303;52.160;-0.428;2022-11-21T08:55:27;15.73;;;6.83;;
20743;SDS011;56303;52.160;-0.428;2022-11-21T08:57:54;14.40;;;5.53;;
20743;SDS011;56303;52.160;-0.428;2022-11-21T09:00:21;14.80;;;5.70;;
20743;SDS011;56303;52.160;-0.428;2022-11-21T09:02:48;14.57;;;5.83;;
20743;SDS011;56303;52.160;-0.428;2022-11-21T09:05:15;15.17;;;5.03;;
20743;SDS011;56303;52.160;-0.428;2022-11-21T09:07:42;15.77;;;5.40;;
20743;SDS011;56303;52.160;-0.428;2022-11-21T09:10:09;9.50;;;4.90;;
20743;SDS011;56303;52.160;-0.428;2022-11-21T09:12:36;12.40;;;4.10;;
20743;SDS011;56303;52.160;-0.428;2022-11-21T09:15:03;17.87;;;6.33;;
20743;SDS011;56303;52.160;-0.428;2022-11-21T09:17:49;15.60;;;4.60;;
20743;SDS011;56303;52.160;-0.428;2022-11-21T09:20:37;11.13;;;5.33;;
20743;SDS011;56303;52.160;-0.428;2022-11-21T09:23:12;11.33;;;5.07;;
20743;SDS011;56303;52.160;-0.428;2022-11-21T09:25:40;13.87;;;6.10;;
20743;SDS011;56303;52.160;-0.428;2022-11-21T09:28:08;9.97;;;4.23;;
20743;SDS011;56303;52.160;-0.428;2022-11-21T09:30:37;13.73;;;4.60;;
20743;SDS011;56303;52.160;-0.428;2022-11-21T09:33:05;13.53;;;4.27;;
20743;SDS011;56303;52.160;-0.428;2022-11-21T09:35:33;11.97;;;4.67;;
20743;SDS011;56303;52.160;-0.428;2022-11-21T09:38:00;15.47;;;4.23;;
20743;SDS011;56303;52.160;-0.428;2022-11-21T09:40:28;16.20;;;5.03;;
20743;SDS011;56303;52.160;-0.428;2022-11-21T09:43:02;12.30;;;4.47;;
20743;SDS011;56303;52.160;-0.428;2022-11-21T09:45:32;10.50;;;3.93;;
20743;SDS011;56303;52.160;-0.428;2022-11-21T09:48:08;14.77;;;4.10;;
20743;SDS011;56303;52.160;-0.428;2022-11-21T09:50:46;10.87;;;3.50;;
20743;SDS011;56303;52.160;-0.428;2022-11-21T09:53:39;15.03;;;5.00;;
20743;SDS011;56303;52.160;-0.428;2022-11-21T09:56:18;12.27;;;4.17;;
20743;SDS011;56303;52.160;-0.428;2022-11-21T10:01:22;13.37;;;4.17;;
20743;SDS011;56303;52.160;-0.428;2022-11-21T10:03:49;14.57;;;3.97;;
20743;SDS011;56303;52.160;-0.428;2022-11-21T10:10:26;13.87;;;4.53;;
20743;SDS011;56303;52.160;-0.428;2022-11-21T10:12:45;7.73;;;3.63;;
20743;SDS011;56303;52.160;-0.428;2022-11-21T10:32:29;9.87;;;3.37;;
20743;SDS011;56303;52.160;-0.428;2022-11-21T10:35:15;15.90;;;3.23;;
20743;SDS011;56303;52.160;-0.428;2022-11-21T10:37:50;16.23;;;3.70;;
20743;SDS011;56303;52.160;-0.428;2022-11-21T10:46:12;11.47;;;3.70;;
20743;SDS011;56303;52.160;-0.428;2022-11-21T10:48:38;13.20;;;4.17;;
20743;SDS011;56303;52.160;-0.428;2022-11-21T10:53:38;14.53;;;3.20;;
20743;SDS011;56303;52.160;-0.428;2022-11-21T10:56:29;13.63;;;3.87;;
20743;SDS011;56303;52.160;-0.428;2022-11-21T10:58:59;12.17;;;3.23;;
20743;SDS011;56303;52.160;-0.428;2022-11-21T11:02:02;16.33;;;4.20;;
20743;SDS011;56303;52.160;-0.428;2022-11-21T11:04:44;13.30;;;4.20;;
20743;SDS011;56303;52.160;-0.428;2022-11-21T11:07:25;11.93;;;3.50;;
20743;SDS011;56303;52.160;-0.428;2022-11-21T11:12:53;14.13;;;4.30;;
20743;SDS011;56303;52.160;-0.428;2022-11-21T11:16:00;13.37;;;3.90;;
20743;SDS011;56303;52.160;-0.428;2022-11-21T11:18:38;13.37;;;4.10;;
20743;SDS011;56303;52.160;-0.428;2022-11-21T11:21:23;14.47;;;4.07;;
20743;SDS011;56303;52.160;-0.428;2022-11-21T11:37:13;15.67;;;4.80;;
20743;SDS011;56303;52.160;-0.428;2022-11-21T11:49:12;15.30;;;4.13;;
20743;SDS011;56303;52.160;-0.428;2022-11-21T11:51:52;16.20;;;4.30;;
20743;SDS011;56303;52.160;-0.428;2022-11-21T11:54:23;14.33;;;4.40;;
20743;SDS011;56303;52.160;-0.428;2022-11-21T11:56:54;15.73;;;4.57;;
20743;SDS011;56303;52.160;-0.428;2022-11-21T11:59:31;18.53;;;4.60;;
20743;SDS011;56303;52.160;-0.428;2022-11-21T12:04:52;14.70;;;5.80;;
20743;SDS011;56303;52.160;-0.428;2022-11-21T12:07:34;17.13;;;6.10;;
20743;SDS011;56303;52.160;-0.428;2022-11-21T12:10:28;9.90;;;3.67;;
20743;SDS011;56303;52.160;-0.428;2022-11-21T12:13:23;12.97;;;4.07;;
20743;SDS011;56303;52.160;-0.428;2022-11-21T12:15:50;12.37;;;3.80;;
20743;SDS011;56303;52.160;-0.428;2022-11-21T12:18:32;16.43;;;4.87;;
20743;SDS011;56303;52.160;-0.428;2022-11-21T12:21:16;15.30;;;4.30;;
20743;SDS011;56303;52.160;-0.428;2022-11-21T12:23:50;11.97;;;3.80;;
20743;SDS011;56303;52.160;-0.428;2022-11-21T12:34:44;14.03;;;4.20;;
20743;SDS011;56303;52.160;-0.428;2022-11-21T12:45:56;9.23;;;3.37;;
20743;SDS011;56303;52.160;-0.428;2022-11-21T12:52:09;8.20;;;3.03;;
20743;SDS011;56303;52.160;-0.428;2022-11-21T12:57:44;11.90;;;3.47;;
20743;SDS011;56303;52.160;-0.428;2022-11-21T13:03:11;13.00;;;3.87;;
20743;SDS011;56303;52.160;-0.428;2022-11-21T13:06:05;12.83;;;3.70;;
20743;SDS011;56303;52.160;-0.428;2022-11-21T13:08:54;12.13;;;3.63;;
20743;SDS011;56303;52.160;-0.428;2022-11-21T13:14:36;15.53;;;4.20;;
20743;SDS011;56303;52.160;-0.428;2022-11-21T13:17:25;14.23;;;4.13;;
20743;SDS011;56303;52.160;-0.428;2022-11-21T13:20:04;15.60;;;5.07;;
20743;SDS011;56303;52.160;-0.428;2022-11-21T13:22:52;17.43;;;4.33;;
20743;SDS011;56303;52.160;-0.428;2022-11-21T13:28:30;12.20;;;4.10;;
20743;SDS011;56303;52.160;-0.428;2022-11-21T13:30:55;14.90;;;6.20;;
20743;SDS011;56303;52.160;-0.428;2022-11-21T13:36:11;18.97;;;6.20;;
20743;SDS011;56303;52.160;-0.428;2022-11-21T13:49:33;16.67;;;5.40;;
20743;SDS011;56303;52.160;-0.428;2022-11-21T14:02:50;14.03;;;5.10;;
20743;SDS011;56303;52.160;-0.428;2022-11-21T14:05:38;13.83;;;4.40;;
20743;SDS011;56303;52.160;-0.428;2022-11-21T14:08:26;11.80;;;4.30;;
20743;SDS011;56303;52.160;-0.428;2022-11-21T14:10:55;13.53;;;4.67;;
20743;SDS011;56303;52.160;-0.428;2022-11-21T14:18:23;14.03;;;4.53;;
20743;SDS011;56303;52.160;-0.428;2022-11-21T14:20:52;10.90;;;4.47;;
20743;SDS011;56303;52.160;-0.428;2022-11-21T14:23:23;15.53;;;4.50;;
20743;SDS011;56303;52.160;-0.428;2022-11-21T14:25:55;12.23;;;3.90;;
20743;SDS011;56303;52.160;-0.428;2022-11-21T14:28:32;13.37;;;4.73;;
20743;SDS011;56303;52.160;-0.428;2022-11-21T14:41:38;13.20;;;5.37;;
20743;SDS011;56303;52.160;-0.428;2022-11-21T14:44:11;12.73;;;5.13;;
20743;SDS011;56303;52.160;-0.428;2022-11-21T14:46:41;13.73;;;5.40;;
20743;SDS011;56303;52.160;-0.428;2022-11-21T14:51:47;7.37;;;3.30;;
20743;SDS011;56303;52.160;-0.428;2022-11-21T14:54:28;8.63;;;3.00;;
20743;SDS011;56303;52.160;-0.428;2022-11-21T14:57:01;10.63;;;2.97;;
20743;SDS011;56303;52.160;-0.428;2022-11-21T14:59:36;5.60;;;2.20;;
20743;SDS011;56303;52.160;-0.428;2022-11-21T15:02:13;4.73;;;2.47;;
20743;SDS011;56303;52.160;-0.428;2022-11-21T15:04:42;7.83;;;2.13;;
20743;SDS011;56303;52.160;-0.428;2022-11-21T15:10:11;6.17;;;2.27;;
20743;SDS011;56303;52.160;-0.428;2022-11-21T15:12:59;9.33;;;2.93;;
20743;SDS011;56303;52.160;-0.428;2022-11-21T15:15:41;4.20;;;1.90;;
20743;SDS011;56303;52.160;-0.428;2022-11-21T15:18:16;4.57;;;2.00;;
20743;SDS011;56303;52.160;-0.428;2022-11-21T15:20:54;6.93;;;2.30;;
20743;SDS011;56303;52.160;-0.428;2022-11-21T15:23:27;6.40;;;2.10;;
20743;SDS011;56303;52.160;-0.428;2022-11-21T15:25:56;7.57;;;2.70;;
20743;SDS011;56303;52.160;-0.428;2022-11-21T15:28:27;5.00;;;2.07;;
20743;SDS011;56303;52.160;-0.428;2022-11-21T15:31:14;4.60;;;1.73;;
20743;SDS011;56303;52.160;-0.428;2022-11-21T15:36:42;4.50;;;1.80;;
20743;SDS011;56303;52.160;-0.428;2022-11-21T15:39:11;4.73;;;2.10;;
20743;SDS011;56303;52.160;-0.428;2022-11-21T15:41:44;4.33;;;2.20;;
20743;SDS011;56303;52.160;-0.428;2022-11-21T15:46:38;6.40;;;2.20;;
20743;SDS011;56303;52.160;-0.428;2022-11-21T15:49:09;4.80;;;1.67;;
20743;SDS011;56303;52.160;-0.428;2022-11-21T15:51:57;5.33;;;2.10;;
20743;SDS011;56303;52.160;-0.428;2022-11-21T15:54:34;5.67;;;1.43;;
20743;SDS011;56303;52.160;-0.428;2022-11-21T15:57:01;4.47;;;2.07;;
20743;SDS011;56303;52.160;-0.428;2022-11-21T15:59:28;4.73;;;2.27;;
20743;SDS011;56303;52.160;-0.428;2022-11-21T16:01:55;4.07;;;1.63;;
20743;SDS011;56303;52.160;-0.428;2022-11-21T16:04:21;5.20;;;2.20;;
20743;SDS011;56303;52.160;-0.428;2022-11-21T16:06:51;5.57;;;2.33;;
20743;SDS011;56303;52.160;-0.428;2022-11-21T16:09:19;6.27;;;3.00;;
20743;SDS011;56303;52.160;-0.428;2022-11-21T16:11:46;4.83;;;2.10;;
20743;SDS011;56303;52.160;-0.428;2022-11-21T16:14:13;5.40;;;2.00;;
20743;SDS011;56303;52.160;-0.428;2022-11-21T16:16:42;7.60;;;2.50;;
20743;SDS011;56303;52.160;-0.428;2022-11-21T16:19:10;5.33;;;2.67;;
20743;SDS011;56303;52.160;-0.428;2022-11-21T16:21:37;8.57;;;2.53;;
20743;SDS011;56303;52.160;-0.428;2022-11-21T16:24:04;6.53;;;2.13;;
20743;SDS011;56303;52.160;-0.428;2022-11-21T16:26:31;10.07;;;2.30;;
20743;SDS011;56303;52.160;-0.428;2022-11-21T16:28:59;4.87;;;2.47;;
20743;SDS011;56303;52.160;-0.428;2022-11-21T16:31:27;5.17;;;2.30;;
20743;SDS011;56303;52.160;-0.428;2022-11-21T16:33:55;6.60;;;2.53;;
20743;SDS011;56303;52.160;-0.428;2022-11-21T16:36:24;5.37;;;2.10;;
20743;SDS011;56303;52.160;-0.428;2022-11-21T16:38:52;7.10;;;3.03;;
20743;SDS011;56303;52.160;-0.428;2022-11-21T16:41:20;7.43;;;2.53;;
20743;SDS011;56303;52.160;-0.428;2022-11-21T16:43:49;9.63;;;2.73;;
20743;SDS011;56303;52.160;-0.428;2022-11-21T16:46:20;7.37;;;2.80;;
20743;SDS011;56303;52.160;-0.428;2022-11-21T16:48:50;5.20;;;2.20;;
20743;SDS011;56303;52.160;-0.428;2022-11-21T16:51:26;6.87;;;2.97;;
20743;SDS011;56303;52.160;-0.428;2022-11-21T16:53:54;10.60;;;3.27;;
20743;SDS011;56303;52.160;-0.428;2022-11-21T16:56:22;5.27;;;2.30;;
20743;SDS011;56303;52.160;-0.428;2022-11-21T16:58:50;8.50;;;2.73;;
20743;SDS011;56303;52.160;-0.428;2022-11-21T17:01:18;7.53;;;2.40;;
20743;SDS011;56303;52.160;-0.428;2022-11-21T17:03:46;7.53;;;2.90;;
20743;SDS011;56303;52.160;-0.428;2022-11-21T17:06:16;6.93;;;2.90;;
20743;SDS011;56303;52.160;-0.428;2022-11-21T17:08:48;7.27;;;3.37;;
20743;SDS011;56303;52.160;-0.428;2022-11-21T17:11:24;10.27;;;4.07;;
20743;SDS011;56303;52.160;-0.428;2022-11-21T17:13:55;11.10;;;4.17;;
20743;SDS011;56303;52.160;-0.428;2022-11-21T17:16:25;9.90;;;3.80;;
20743;SDS011;56303;52.160;-0.428;2022-11-21T17:18:55;11.67;;;4.00;;
20743;SDS011;56303;52.160;-0.428;2022-11-21T17:21:23;15.03;;;4.00;;